Edmonton / Gartner Airport

METAR CYEG TAF CYEG
-4 °C
°C
-
°C
45m
Età
01:45:00
LT
00:45
UTC
0 ft

1.000

2.000

3.000

4.000

5.000

VFR
<?= Yii::t('app', 'Wind direction') ?> <?= Yii::t('app', 'of'); ?>
240°
07:31
Alba
63%
Umidità
Taglio del vento
Chiuso/Neve
Raggio visivo RWY
Condizione della RWY
Visibilità verticale
Visibilità minima
CAVOK
Tendenza
Correzione
Rapporto speciale
29,88 inHg
QNH
METAR CYEG 220000Z 24003KT 20SM SKC M04/M10 A2988 RMK SLP162
Cielo sereno
2 kt
2 kt
18:00
VFR
3 kt
19:00
VFR
3 kt
20:00
VFR
3 kt
21:00
VFR
3 kt
22:00
VFR
3 kt
23:00
VFR
3 kt
00:00
VFR
8 kt
20 mi
Vista
No
Base nuvolosa
3 kt
Vento
metar-taf.com/CFQ7

Metar-Taf.com

Decodificatore visivo

Noi e le terze parti seguiamo il tuo comportamento su internet con i cookie. Se continui, riteniamo che tu sia d'accordo con la nostra Politica sui cookie.